createdAt,value
2023-03-23T15:58:39.580Z,22.50
2023-03-23T16:01:19.778Z,23.33
2023-03-23T16:04:06.458Z,24.27
2023-03-23T16:06:37.453Z,24.10
2023-03-23T16:09:08.082Z,25.55
2023-03-23T16:11:37.252Z,26.40
2023-03-23T16:14:06.384Z,28.02
2023-03-23T16:16:48.769Z,28.67
2023-03-23T16:19:21.566Z,25.95
2023-03-23T16:21:50.488Z,30.00
2023-03-23T16:24:19.230Z,28.30
2023-03-23T16:26:48.434Z,32.78
2023-03-23T16:29:39.874Z,34.05
2023-03-23T16:32:08.249Z,35.42
2023-03-23T16:34:37.923Z,34.75
2023-03-23T16:37:10.316Z,34.38
2023-03-23T16:39:39.295Z,33.55
2023-03-23T16:42:08.267Z,31.42
2023-03-23T16:44:40.262Z,34.80
2023-03-23T16:47:09.233Z,35.90
2023-03-23T16:49:37.931Z,36.05
2023-03-23T16:52:06.842Z,37.20
2023-03-23T16:54:35.805Z,34.22
2023-03-23T16:57:04.761Z,33.88
2023-03-23T16:59:33.752Z,32.25
2023-03-23T17:02:04.784Z,31.38
2023-03-23T17:04:35.355Z,29.65
2023-03-23T17:07:05.191Z,28.85
2023-03-23T17:09:35.112Z,31.65
2023-03-23T17:12:04.063Z,31.23
2023-03-23T17:14:33.442Z,33.70
2023-03-23T17:17:02.671Z,29.35
2023-03-23T17:19:31.435Z,32.55
2023-03-23T17:22:01.900Z,33.45
2023-03-23T17:24:31.122Z,32.67
2023-03-23T17:26:59.908Z,30.58
2023-03-23T17:29:29.402Z,31.27
2023-03-23T17:31:58.130Z,35.33
2023-03-23T17:34:27.156Z,31.33
2023-03-23T17:36:56.360Z,31.27
2023-03-23T17:39:25.760Z,29.17
2023-03-23T17:41:54.474Z,29.42
2023-03-23T17:44:23.539Z,29.23
2023-03-23T17:46:52.450Z,27.67
2023-03-23T17:49:21.368Z,28.77
2023-03-23T17:51:50.712Z,29.15
2023-03-23T17:54:19.849Z,27.55
2023-03-23T17:56:48.603Z,27.70
2023-03-23T17:59:18.220Z,27.58
2023-03-23T18:01:49.791Z,28.73
2023-03-23T18:04:19.250Z,29.13
2023-03-23T18:06:48.031Z,29.50
2023-03-23T18:09:17.155Z,29.58
2023-03-23T18:11:46.095Z,31.23
2023-03-23T18:14:15.037Z,32.28
2023-03-23T18:16:43.859Z,32.17
2023-03-23T18:19:13.371Z,33.08
2023-03-23T18:21:43.840Z,32.25
2023-03-23T18:24:15.173Z,35.60
2023-03-23T18:26:44.229Z,35.95
2023-03-23T18:29:12.845Z,35.30
2023-03-23T18:31:41.912Z,34.88
2023-03-23T18:34:10.766Z,34.38
2023-03-23T18:36:40.003Z,38.70
2023-03-23T18:39:11.628Z,37.75
2023-03-23T18:41:40.567Z,36.60
2023-03-23T18:44:09.548Z,38.47
2023-03-23T18:46:38.739Z,36.95
2023-03-23T18:49:07.757Z,34.95
2023-03-23T18:51:38.559Z,36.30
2023-03-23T18:54:08.410Z,36.25
2023-03-23T18:56:37.162Z,35.83
2023-03-23T18:59:07.138Z,36.78
2023-03-23T19:01:36.207Z,38.58
2023-03-23T19:04:06.490Z,40.47
2023-03-23T19:06:36.595Z,39.08
2023-03-23T19:09:05.831Z,46.78
2023-03-23T19:11:34.662Z,48.00
2023-03-23T19:14:04.002Z,51.85
2023-03-23T19:16:36.430Z,47.25
2023-03-23T19:19:07.214Z,49.53
2023-03-23T19:21:37.599Z,49.58
2023-03-23T19:24:08.485Z,50.67
2023-03-23T19:26:41.834Z,48.35
2023-03-23T19:31:49.413Z,50.35
2023-03-23T19:34:19.241Z,49.88
2023-03-23T19:36:53.737Z,52.53
2023-03-23T19:39:25.419Z,50.05
2023-03-23T19:41:54.168Z,48.90
2023-03-23T19:44:24.180Z,48.40
2023-03-23T19:46:55.525Z,45.05
2023-03-23T19:49:25.827Z,45.45
2023-03-23T19:52:08.386Z,47.55
2023-03-23T19:54:41.501Z,49.20
2023-03-23T19:57:15.314Z,52.50
2023-03-23T19:59:45.034Z,47.55
2023-03-23T20:02:14.976Z,51.00
2023-03-23T20:04:45.524Z,55.40
2023-03-23T20:07:15.480Z,53.28
2023-03-23T20:09:44.770Z,53.83
2023-03-23T20:12:13.935Z,53.58
2023-03-23T20:14:45.368Z,52.95
2023-03-23T20:17:15.622Z,44.83
2023-03-23T20:22:15.226Z,38.22
2023-03-23T20:24:48.289Z,36.83
2023-03-23T20:27:18.695Z,32.50
2023-03-23T20:29:48.185Z,30.67
2023-03-23T20:32:17.556Z,27.60
2023-03-23T20:34:49.784Z,25.08
2023-03-23T20:37:21.842Z,25.55
2023-03-23T20:39:50.763Z,24.10
2023-03-23T20:42:20.116Z,22.73
2023-03-23T20:44:49.841Z,22.92
2023-03-23T20:47:18.601Z,21.40
2023-03-23T20:49:52.587Z,20.48
2023-03-23T20:52:24.359Z,19.05
2023-03-23T20:54:54.537Z,19.00
2023-03-23T20:57:24.153Z,19.20
2023-03-23T20:59:53.474Z,20.70
2023-03-23T21:02:22.684Z,20.13
2023-03-23T21:04:53.826Z,20.67
2023-03-23T21:07:23.969Z,19.58
2023-03-23T21:09:52.719Z,19.98
2023-03-23T21:12:21.751Z,19.75
2023-03-23T21:14:50.734Z,17.83
2023-03-23T21:17:19.653Z,19.58
2023-03-23T21:19:49.094Z,20.25
2023-03-23T21:22:19.567Z,20.80
2023-03-23T21:24:51.411Z,19.52
2023-03-23T21:27:20.490Z,20.58
2023-03-23T21:29:49.719Z,20.50
2023-03-23T21:32:18.763Z,21.33
2023-03-23T21:34:48.418Z,21.45
2023-03-23T21:37:17.508Z,22.42
2023-03-23T21:39:47.096Z,22.25
2023-03-23T21:42:15.981Z,21.42
2023-03-23T21:44:44.698Z,22.80
2023-03-23T21:47:14.114Z,24.25
2023-03-23T21:49:42.896Z,23.38
2023-03-23T21:52:11.986Z,23.00
2023-03-23T21:54:42.272Z,23.88
2023-03-23T21:57:11.178Z,24.05
2023-03-23T21:59:39.921Z,22.63
2023-03-23T22:02:13.678Z,23.65
2023-03-23T22:04:43.261Z,24.45
2023-03-23T22:07:13.490Z,20.58
2023-03-23T22:09:46.096Z,22.83
2023-03-23T22:12:16.541Z,22.33
2023-03-23T22:14:46.353Z,21.88
2023-03-23T22:17:15.180Z,22.50
2023-03-23T22:19:44.473Z,21.50
2023-03-23T22:22:13.463Z,20.35
2023-03-23T22:24:42.491Z,20.23
2023-03-23T22:27:11.686Z,19.90
2023-03-23T22:29:40.938Z,21.38
2023-03-23T22:32:09.696Z,22.15
2023-03-23T22:34:38.798Z,20.80
2023-03-23T22:37:09.367Z,22.40
2023-03-23T22:39:38.406Z,27.52
2023-03-23T22:42:07.272Z,29.85
2023-03-23T22:44:37.551Z,27.88
2023-03-23T22:47:06.751Z,26.15
2023-03-23T22:49:35.617Z,24.17
2023-03-23T22:52:05.221Z,28.58
2023-03-23T22:54:33.996Z,22.27
2023-03-23T22:57:02.923Z,21.67
2023-03-23T22:59:31.912Z,19.85
2023-03-23T23:02:00.824Z,20.23
2023-03-23T23:04:29.555Z,20.73
2023-03-23T23:07:12.098Z,20.00
2023-03-23T23:09:43.674Z,19.67
2023-03-23T23:12:15.154Z,20.15
2023-03-23T23:14:45.632Z,22.15
2023-03-23T23:17:14.674Z,21.58
2023-03-23T23:19:43.601Z,22.88
2023-03-23T23:22:19.059Z,22.80
2023-03-23T23:24:49.213Z,23.30
2023-03-23T23:27:19.003Z,25.88
2023-03-23T23:29:48.075Z,26.20
2023-03-23T23:32:17.211Z,24.85
2023-03-23T23:34:47.752Z,25.48
2023-03-23T23:37:16.969Z,25.40
2023-03-23T23:39:46.461Z,25.77
2023-03-23T23:42:15.461Z,24.42
2023-03-23T23:44:46.216Z,27.13
2023-03-23T23:47:15.199Z,26.73
2023-03-23T23:49:43.997Z,27.60
2023-03-23T23:52:13.081Z,28.00
2023-03-23T23:54:43.570Z,26.25
2023-03-23T23:57:12.662Z,26.63
2023-03-23T23:59:42.078Z,27.30
